sensor_id;sensor_type;location;lat;lon;timestamp;temperature;humidity
16655;DHT22;8441;51.344;7.022;2022-08-19T00:01:50;18.20;99.90
16655;DHT22;8441;51.344;7.022;2022-08-19T00:04:19;18.20;99.90
16655;DHT22;8441;51.344;7.022;2022-08-19T00:06:47;18.20;99.90
16655;DHT22;8441;51.344;7.022;2022-08-19T00:09:17;18.10;99.90
16655;DHT22;8441;51.344;7.022;2022-08-19T00:11:46;18.10;99.90
16655;DHT22;8441;51.344;7.022;2022-08-19T00:14:15;18.20;99.90
16655;DHT22;8441;51.344;7.022;2022-08-19T00:16:45;18.20;99.90
16655;DHT22;8441;51.344;7.022;2022-08-19T00:19:13;18.10;99.90
16655;DHT22;8441;51.344;7.022;2022-08-19T00:21:40;18.10;99.90
16655;DHT22;8441;51.344;7.022;2022-08-19T00:24:08;18.10;99.90
16655;DHT22;8441;51.344;7.022;2022-08-19T00:26:36;18.10;99.90
16655;DHT22;8441;51.344;7.022;2022-08-19T00:29:06;18.10;99.90
16655;DHT22;8441;51.344;7.022;2022-08-19T00:31:34;18.10;99.90
16655;DHT22;8441;51.344;7.022;2022-08-19T00:34:01;18.10;99.90
16655;DHT22;8441;51.344;7.022;2022-08-19T00:36:28;18.10;99.90
16655;DHT22;8441;51.344;7.022;2022-08-19T00:38:57;18.00;99.90
16655;DHT22;8441;51.344;7.022;2022-08-19T00:41:25;17.90;99.90
16655;DHT22;8441;51.344;7.022;2022-08-19T00:44:00;17.90;99.90
16655;DHT22;8441;51.344;7.022;2022-08-19T00:46:29;17.80;99.90
16655;DHT22;8441;51.344;7.022;2022-08-19T00:48:56;17.80;99.90
16655;DHT22;8441;51.344;7.022;2022-08-19T00:51:24;17.80;99.90
16655;DHT22;8441;51.344;7.022;2022-08-19T00:53:53;17.80;99.90
16655;DHT22;8441;51.344;7.022;2022-08-19T00:56:20;17.70;99.90
16655;DHT22;8441;51.344;7.022;2022-08-19T00:58:47;17.80;99.90
16655;DHT22;8441;51.344;7.022;2022-08-19T01:01:15;17.80;99.90
16655;DHT22;8441;51.344;7.022;2022-08-19T01:03:43;17.80;99.90
16655;DHT22;8441;51.344;7.022;2022-08-19T01:06:10;17.80;99.90
16655;DHT22;8441;51.344;7.022;2022-08-19T01:08:37;17.80;99.90
16655;DHT22;8441;51.344;7.022;2022-08-19T01:11:05;17.80;99.90
16655;DHT22;8441;51.344;7.022;2022-08-19T01:13:33;17.70;99.90
16655;DHT22;8441;51.344;7.022;2022-08-19T01:16:02;17.70;99.90
16655;DHT22;8441;51.344;7.022;2022-08-19T01:18:31;17.70;99.90
16655;DHT22;8441;51.344;7.022;2022-08-19T01:21:03;17.70;99.90
16655;DHT22;8441;51.344;7.022;2022-08-19T01:23:33;17.70;99.90
16655;DHT22;8441;51.344;7.022;2022-08-19T01:26:12;17.80;99.90
16655;DHT22;8441;51.344;7.022;2022-08-19T01:28:40;17.70;99.90
16655;DHT22;8441;51.344;7.022;2022-08-19T01:31:09;17.70;99.90
16655;DHT22;8441;51.344;7.022;2022-08-19T01:33:37;17.70;99.90
16655;DHT22;8441;51.344;7.022;2022-08-19T01:36:07;17.70;99.90
16655;DHT22;8441;51.344;7.022;2022-08-19T01:38:37;17.70;99.90
16655;DHT22;8441;51.344;7.022;2022-08-19T01:41:05;17.70;99.90
16655;DHT22;8441;51.344;7.022;2022-08-19T01:43:33;17.60;99.90
16655;DHT22;8441;51.344;7.022;2022-08-19T01:46:00;17.60;99.90
16655;DHT22;8441;51.344;7.022;2022-08-19T01:48:33;17.60;99.90
16655;DHT22;8441;51.344;7.022;2022-08-19T01:51:00;17.60;99.90
16655;DHT22;8441;51.344;7.022;2022-08-19T01:53:27;17.60;99.90
16655;DHT22;8441;51.344;7.022;2022-08-19T01:55:56;17.60;99.90
16655;DHT22;8441;51.344;7.022;2022-08-19T01:58:27;17.50;99.90
16655;DHT22;8441;51.344;7.022;2022-08-19T02:00:57;17.50;99.90
16655;DHT22;8441;51.344;7.022;2022-08-19T02:03:24;17.50;99.90
16655;DHT22;8441;51.344;7.022;2022-08-19T02:05:55;17.50;99.90
16655;DHT22;8441;51.344;7.022;2022-08-19T02:08:23;17.50;99.90
16655;DHT22;8441;51.344;7.022;2022-08-19T02:10:50;17.50;99.90
16655;DHT22;8441;51.344;7.022;2022-08-19T02:13:19;17.50;99.90
16655;DHT22;8441;51.344;7.022;2022-08-19T02:15:46;17.60;99.90
16655;DHT22;8441;51.344;7.022;2022-08-19T02:18:13;17.50;99.90
16655;DHT22;8441;51.344;7.022;2022-08-19T02:20:42;17.50;99.90
16655;DHT22;8441;51.344;7.022;2022-08-19T02:23:10;17.50;99.90
16655;DHT22;8441;51.344;7.022;2022-08-19T02:25:38;17.50;99.90
16655;DHT22;8441;51.344;7.022;2022-08-19T02:28:05;17.50;99.90
16655;DHT22;8441;51.344;7.022;2022-08-19T02:30:34;17.60;99.90
16655;DHT22;8441;51.344;7.022;2022-08-19T02:33:01;17.60;99.90
16655;DHT22;8441;51.344;7.022;2022-08-19T02:35:28;17.50;99.90
16655;DHT22;8441;51.344;7.022;2022-08-19T02:37:55;17.50;99.90
16655;DHT22;8441;51.344;7.022;2022-08-19T02:40:40;17.50;99.90
16655;DHT22;8441;51.344;7.022;2022-08-19T02:43:09;17.40;99.90
16655;DHT22;8441;51.344;7.022;2022-08-19T02:45:38;17.40;99.90
16655;DHT22;8441;51.344;7.022;2022-08-19T02:48:06;17.30;99.90
16655;DHT22;8441;51.344;7.022;2022-08-19T02:50:37;17.40;99.90
16655;DHT22;8441;51.344;7.022;2022-08-19T02:53:05;17.40;99.90
16655;DHT22;8441;51.344;7.022;2022-08-19T02:55:32;17.30;99.90
16655;DHT22;8441;51.344;7.022;2022-08-19T02:57:59;17.20;99.90
16655;DHT22;8441;51.344;7.022;2022-08-19T03:00:27;17.10;99.90
16655;DHT22;8441;51.344;7.022;2022-08-19T03:02:55;17.20;99.90
16655;DHT22;8441;51.344;7.022;2022-08-19T03:05:22;17.20;99.90
16655;DHT22;8441;51.344;7.022;2022-08-19T03:07:49;17.20;99.90
16655;DHT22;8441;51.344;7.022;2022-08-19T03:10:17;17.20;99.90
16655;DHT22;8441;51.344;7.022;2022-08-19T03:12:44;17.20;99.90
16655;DHT22;8441;51.344;7.022;2022-08-19T03:15:11;17.20;99.90
16655;DHT22;8441;51.344;7.022;2022-08-19T03:17:39;17.20;99.90
16655;DHT22;8441;51.344;7.022;2022-08-19T03:20:08;17.20;99.90
16655;DHT22;8441;51.344;7.022;2022-08-19T03:22:35;17.20;99.90
16655;DHT22;8441;51.344;7.022;2022-08-19T03:25:03;17.10;99.90
16655;DHT22;8441;51.344;7.022;2022-08-19T03:27:30;17.20;99.90
16655;DHT22;8441;51.344;7.022;2022-08-19T03:29:57;17.20;99.90
16655;DHT22;8441;51.344;7.022;2022-08-19T03:32:25;17.20;99.90
16655;DHT22;8441;51.344;7.022;2022-08-19T03:34:52;17.20;99.90
16655;DHT22;8441;51.344;7.022;2022-08-19T03:37:20;17.20;99.90
16655;DHT22;8441;51.344;7.022;2022-08-19T03:39:48;17.20;99.90
16655;DHT22;8441;51.344;7.022;2022-08-19T03:42:15;17.10;99.90
16655;DHT22;8441;51.344;7.022;2022-08-19T03:44:42;17.00;99.90
16655;DHT22;8441;51.344;7.022;2022-08-19T03:47:10;17.00;99.90
16655;DHT22;8441;51.344;7.022;2022-08-19T03:49:41;17.00;99.90
16655;DHT22;8441;51.344;7.022;2022-08-19T03:52:08;17.00;99.90
16655;DHT22;8441;51.344;7.022;2022-08-19T03:54:37;17.00;99.90
16655;DHT22;8441;51.344;7.022;2022-08-19T03:57:05;17.10;99.90
16655;DHT22;8441;51.344;7.022;2022-08-19T03:59:34;17.00;99.90
16655;DHT22;8441;51.344;7.022;2022-08-19T04:02:06;17.00;99.90
16655;DHT22;8441;51.344;7.022;2022-08-19T04:04:34;17.10;99.90
16655;DHT22;8441;51.344;7.022;2022-08-19T04:07:02;17.10;99.90
16655;DHT22;8441;51.344;7.022;2022-08-19T04:09:30;17.10;99.90
16655;DHT22;8441;51.344;7.022;2022-08-19T04:11:58;17.10;99.90
16655;DHT22;8441;51.344;7.022;2022-08-19T04:14:28;17.00;99.90
16655;DHT22;8441;51.344;7.022;2022-08-19T04:16:56;16.90;99.90
16655;DHT22;8441;51.344;7.022;2022-08-19T04:19:23;16.90;99.90
16655;DHT22;8441;51.344;7.022;2022-08-19T04:21:51;17.00;99.90
16655;DHT22;8441;51.344;7.022;2022-08-19T04:24:20;17.00;99.90
16655;DHT22;8441;51.344;7.022;2022-08-19T04:26:47;17.00;99.90
16655;DHT22;8441;51.344;7.022;2022-08-19T04:29:18;17.00;99.90
16655;DHT22;8441;51.344;7.022;2022-08-19T04:31:48;17.00;99.90
16655;DHT22;8441;51.344;7.022;2022-08-19T04:34:18;17.00;99.90
16655;DHT22;8441;51.344;7.022;2022-08-19T04:36:48;17.00;99.90
16655;DHT22;8441;51.344;7.022;2022-08-19T04:39:20;16.90;99.90
16655;DHT22;8441;51.344;7.022;2022-08-19T04:41:47;16.90;99.90
16655;DHT22;8441;51.344;7.022;2022-08-19T04:44:35;17.00;99.90
16655;DHT22;8441;51.344;7.022;2022-08-19T04:47:03;17.00;99.90
16655;DHT22;8441;51.344;7.022;2022-08-19T04:49:32;17.10;99.90
16655;DHT22;8441;51.344;7.022;2022-08-19T04:51:59;17.10;99.90
16655;DHT22;8441;51.344;7.022;2022-08-19T04:54:26;17.10;99.90
16655;DHT22;8441;51.344;7.022;2022-08-19T04:56:53;17.10;99.90
16655;DHT22;8441;51.344;7.022;2022-08-19T04:59:21;17.20;99.90
16655;DHT22;8441;51.344;7.022;2022-08-19T05:01:49;17.20;99.90
16655;DHT22;8441;51.344;7.022;2022-08-19T05:04:18;17.20;99.90
16655;DHT22;8441;51.344;7.022;2022-08-19T05:06:47;17.20;99.90
16655;DHT22;8441;51.344;7.022;2022-08-19T05:09:15;17.20;99.90
16655;DHT22;8441;51.344;7.022;2022-08-19T05:11:43;17.30;99.90
16655;DHT22;8441;51.344;7.022;2022-08-19T05:14:11;17.30;99.90
16655;DHT22;8441;51.344;7.022;2022-08-19T05:16:39;17.30;99.90
16655;DHT22;8441;51.344;7.022;2022-08-19T05:19:08;17.40;99.90
16655;DHT22;8441;51.344;7.022;2022-08-19T05:21:53;17.40;99.90
16655;DHT22;8441;51.344;7.022;2022-08-19T05:24:38;17.60;99.90
16655;DHT22;8441;51.344;7.022;2022-08-19T05:27:05;17.60;99.90
16655;DHT22;8441;51.344;7.022;2022-08-19T05:29:33;17.60;99.90
16655;DHT22;8441;51.344;7.022;2022-08-19T05:32:02;17.70;99.90
16655;DHT22;8441;51.344;7.022;2022-08-19T05:34:32;17.70;99.90
16655;DHT22;8441;51.344;7.022;2022-08-19T05:36:59;17.70;99.90
16655;DHT22;8441;51.344;7.022;2022-08-19T05:39:29;17.80;99.90
16655;DHT22;8441;51.344;7.022;2022-08-19T05:41:59;18.00;99.90
16655;DHT22;8441;51.344;7.022;2022-08-19T05:44:28;18.00;99.90
16655;DHT22;8441;51.344;7.022;2022-08-19T05:46:57;18.10;99.90
16655;DHT22;8441;51.344;7.022;2022-08-19T05:49:25;18.10;99.90
16655;DHT22;8441;51.344;7.022;2022-08-19T05:51:55;18.20;99.90
16655;DHT22;8441;51.344;7.022;2022-08-19T05:54:23;18.20;99.90
16655;DHT22;8441;51.344;7.022;2022-08-19T05:56:51;18.40;99.90
16655;DHT22;8441;51.344;7.022;2022-08-19T05:59:19;18.40;99.90
16655;DHT22;8441;51.344;7.022;2022-08-19T06:01:49;18.50;99.90
16655;DHT22;8441;51.344;7.022;2022-08-19T06:04:18;18.60;99.90
16655;DHT22;8441;51.344;7.022;2022-08-19T06:06:46;18.60;99.90
16655;DHT22;8441;51.344;7.022;2022-08-19T06:09:14;18.70;99.90
16655;DHT22;8441;51.344;7.022;2022-08-19T06:11:44;18.80;99.90
16655;DHT22;8441;51.344;7.022;2022-08-19T06:14:15;18.90;99.90
16655;DHT22;8441;51.344;7.022;2022-08-19T06:16:44;19.00;99.90
16655;DHT22;8441;51.344;7.022;2022-08-19T06:19:14;19.10;99.90
16655;DHT22;8441;51.344;7.022;2022-08-19T06:21:43;19.20;99.90
16655;DHT22;8441;51.344;7.022;2022-08-19T06:24:12;19.20;99.90
16655;DHT22;8441;51.344;7.022;2022-08-19T06:26:43;19.30;99.90
16655;DHT22;8441;51.344;7.022;2022-08-19T06:29:12;19.30;99.90
16655;DHT22;8441;51.344;7.022;2022-08-19T06:31:42;19.40;99.90
16655;DHT22;8441;51.344;7.022;2022-08-19T06:34:09;19.40;99.90
16655;DHT22;8441;51.344;7.022;2022-08-19T06:36:38;19.30;99.90
16655;DHT22;8441;51.344;7.022;2022-08-19T06:39:10;19.30;99.90
16655;DHT22;8441;51.344;7.022;2022-08-19T06:41:41;19.30;99.90
16655;DHT22;8441;51.344;7.022;2022-08-19T06:44:09;19.30;99.90
16655;DHT22;8441;51.344;7.022;2022-08-19T06:46:37;19.20;99.90
16655;DHT22;8441;51.344;7.022;2022-08-19T06:49:05;19.20;99.90
16655;DHT22;8441;51.344;7.022;2022-08-19T06:51:36;19.20;99.90
16655;DHT22;8441;51.344;7.022;2022-08-19T06:54:04;19.20;99.90
16655;DHT22;8441;51.344;7.022;2022-08-19T06:56:31;19.20;99.90
16655;DHT22;8441;51.344;7.022;2022-08-19T06:59:02;19.30;99.90
16655;DHT22;8441;51.344;7.022;2022-08-19T07:01:34;19.30;99.90
16655;DHT22;8441;51.344;7.022;2022-08-19T07:04:04;19.40;99.90
16655;DHT22;8441;51.344;7.022;2022-08-19T07:06:31;19.50;99.90
16655;DHT22;8441;51.344;7.022;2022-08-19T07:08:58;19.60;99.90
16655;DHT22;8441;51.344;7.022;2022-08-19T07:11:25;19.70;99.90
16655;DHT22;8441;51.344;7.022;2022-08-19T07:13:52;19.70;99.90
16655;DHT22;8441;51.344;7.022;2022-08-19T07:16:22;19.70;99.90
16655;DHT22;8441;51.344;7.022;2022-08-19T07:18:50;19.80;99.90
16655;DHT22;8441;51.344;7.022;2022-08-19T07:21:20;19.80;99.90
16655;DHT22;8441;51.344;7.022;2022-08-19T07:23:48;19.90;99.90
16655;DHT22;8441;51.344;7.022;2022-08-19T07:26:16;20.00;99.90
16655;DHT22;8441;51.344;7.022;2022-08-19T07:28:45;20.00;99.90
16655;DHT22;8441;51.344;7.022;2022-08-19T07:31:15;20.10;99.90
16655;DHT22;8441;51.344;7.022;2022-08-19T07:33:46;20.20;99.90
16655;DHT22;8441;51.344;7.022;2022-08-19T07:36:16;20.20;99.90
16655;DHT22;8441;51.344;7.022;2022-08-19T07:38:45;20.30;99.90
16655;DHT22;8441;51.344;7.022;2022-08-19T07:41:14;20.30;99.90
16655;DHT22;8441;51.344;7.022;2022-08-19T07:43:42;20.20;99.90
16655;DHT22;8441;51.344;7.022;2022-08-19T07:46:11;20.30;99.90
16655;DHT22;8441;51.344;7.022;2022-08-19T07:48:40;20.30;99.90
16655;DHT22;8441;51.344;7.022;2022-08-19T07:51:10;20.30;99.90
16655;DHT22;8441;51.344;7.022;2022-08-19T07:53:38;20.30;99.90
16655;DHT22;8441;51.344;7.022;2022-08-19T07:56:05;20.40;99.90
16655;DHT22;8441;51.344;7.022;2022-08-19T07:58:36;20.60;99.90
16655;DHT22;8441;51.344;7.022;2022-08-19T08:01:06;20.60;99.90
16655;DHT22;8441;51.344;7.022;2022-08-19T08:03:33;20.70;99.90
16655;DHT22;8441;51.344;7.022;2022-08-19T08:06:19;20.80;99.90
16655;DHT22;8441;51.344;7.022;2022-08-19T08:09:04;20.90;99.90
16655;DHT22;8441;51.344;7.022;2022-08-19T08:11:37;21.10;99.90
16655;DHT22;8441;51.344;7.022;2022-08-19T08:14:05;21.30;99.90
16655;DHT22;8441;51.344;7.022;2022-08-19T08:16:34;21.40;99.90
16655;DHT22;8441;51.344;7.022;2022-08-19T08:19:03;21.60;99.90
16655;DHT22;8441;51.344;7.022;2022-08-19T08:21:33;21.70;99.90
16655;DHT22;8441;51.344;7.022;2022-08-19T08:24:00;21.80;99.90
16655;DHT22;8441;51.344;7.022;2022-08-19T08:26:27;22.00;99.90
16655;DHT22;8441;51.344;7.022;2022-08-19T08:28:54;22.00;99.90
16655;DHT22;8441;51.344;7.022;2022-08-19T08:31:22;22.00;99.90
16655;DHT22;8441;51.344;7.022;2022-08-19T08:33:49;22.10;99.90
16655;DHT22;8441;51.344;7.022;2022-08-19T08:36:16;22.30;99.90
16655;DHT22;8441;51.344;7.022;2022-08-19T08:38:45;22.40;99.90
16655;DHT22;8441;51.344;7.022;2022-08-19T08:41:18;22.50;99.90
16655;DHT22;8441;51.344;7.022;2022-08-19T08:43:50;22.60;99.90
16655;DHT22;8441;51.344;7.022;2022-08-19T08:46:23;22.70;99.90
16655;DHT22;8441;51.344;7.022;2022-08-19T08:48:56;23.00;99.90
16655;DHT22;8441;51.344;7.022;2022-08-19T08:51:28;23.20;99.90
16655;DHT22;8441;51.344;7.022;2022-08-19T08:53:57;23.50;99.90
16655;DHT22;8441;51.344;7.022;2022-08-19T08:56:24;23.80;99.90
16655;DHT22;8441;51.344;7.022;2022-08-19T08:58:56;23.90;99.90
16655;DHT22;8441;51.344;7.022;2022-08-19T09:01:24;24.00;99.90
16655;DHT22;8441;51.344;7.022;2022-08-19T09:03:51;24.00;99.90
16655;DHT22;8441;51.344;7.022;2022-08-19T09:06:24;24.00;99.90
16655;DHT22;8441;51.344;7.022;2022-08-19T09:08:59;24.00;99.90
16655;DHT22;8441;51.344;7.022;2022-08-19T09:11:46;23.80;99.90
16655;DHT22;8441;51.344;7.022;2022-08-19T09:14:23;23.70;99.90
16655;DHT22;8441;51.344;7.022;2022-08-19T09:16:51;23.70;99.90
16655;DHT22;8441;51.344;7.022;2022-08-19T09:19:18;23.60;99.90
16655;DHT22;8441;51.344;7.022;2022-08-19T09:21:46;23.60;99.90
16655;DHT22;8441;51.344;7.022;2022-08-19T09:24:16;23.70;99.90
16655;DHT22;8441;51.344;7.022;2022-08-19T09:26:43;23.80;99.90
16655;DHT22;8441;51.344;7.022;2022-08-19T09:29:11;24.00;99.90
16655;DHT22;8441;51.344;7.022;2022-08-19T09:31:38;24.20;99.90
16655;DHT22;8441;51.344;7.022;2022-08-19T09:34:05;24.10;99.90
16655;DHT22;8441;51.344;7.022;2022-08-19T09:36:34;24.10;99.90
16655;DHT22;8441;51.344;7.022;2022-08-19T09:39:02;24.30;99.90
16655;DHT22;8441;51.344;7.022;2022-08-19T09:41:31;24.40;99.90
16655;DHT22;8441;51.344;7.022;2022-08-19T09:43:58;24.60;99.90
16655;DHT22;8441;51.344;7.022;2022-08-19T09:46:27;24.80;99.90
16655;DHT22;8441;51.344;7.022;2022-08-19T09:48:59;25.00;99.90
16655;DHT22;8441;51.344;7.022;2022-08-19T09:51:27;24.80;99.90
16655;DHT22;8441;51.344;7.022;2022-08-19T09:53:59;24.40;99.90
16655;DHT22;8441;51.344;7.022;2022-08-19T09:56:27;24.30;99.90
16655;DHT22;8441;51.344;7.022;2022-08-19T09:58:58;24.20;99.90
16655;DHT22;8441;51.344;7.022;2022-08-19T10:01:28;24.30;99.90
16655;DHT22;8441;51.344;7.022;2022-08-19T10:03:57;24.30;99.90
16655;DHT22;8441;51.344;7.022;2022-08-19T10:06:29;24.20;99.90
16655;DHT22;8441;51.344;7.022;2022-08-19T10:08:58;24.00;99.90
16655;DHT22;8441;51.344;7.022;2022-08-19T10:11:26;24.00;99.90
16655;DHT22;8441;51.344;7.022;2022-08-19T10:13:56;24.10;99.90
16655;DHT22;8441;51.344;7.022;2022-08-19T10:16:24;24.20;99.90
16655;DHT22;8441;51.344;7.022;2022-08-19T10:18:52;24.40;99.90
16655;DHT22;8441;51.344;7.022;2022-08-19T10:21:22;24.70;99.90
16655;DHT22;8441;51.344;7.022;2022-08-19T10:23:51;24.80;99.90
16655;DHT22;8441;51.344;7.022;2022-08-19T10:26:20;24.80;99.90
16655;DHT22;8441;51.344;7.022;2022-08-19T10:28:47;24.60;99.90
16655;DHT22;8441;51.344;7.022;2022-08-19T10:31:18;24.40;99.90
16655;DHT22;8441;51.344;7.022;2022-08-19T10:33:46;24.30;99.90
16655;DHT22;8441;51.344;7.022;2022-08-19T10:36:15;24.30;99.90
16655;DHT22;8441;51.344;7.022;2022-08-19T10:38:43;24.30;99.90
16655;DHT22;8441;51.344;7.022;2022-08-19T10:41:13;24.30;99.90
16655;DHT22;8441;51.344;7.022;2022-08-19T10:43:40;24.10;99.90
16655;DHT22;8441;51.344;7.022;2022-08-19T10:46:08;24.30;99.90
16655;DHT22;8441;51.344;7.022;2022-08-19T10:48:37;24.50;99.90
16655;DHT22;8441;51.344;7.022;2022-08-19T10:51:05;24.60;99.90
16655;DHT22;8441;51.344;7.022;2022-08-19T10:53:50;24.70;99.90
16655;DHT22;8441;51.344;7.022;2022-08-19T10:56:17;24.80;99.90
16655;DHT22;8441;51.344;7.022;2022-08-19T10:59:03;24.90;99.90
16655;DHT22;8441;51.344;7.022;2022-08-19T11:01:31;25.30;99.90
16655;DHT22;8441;51.344;7.022;2022-08-19T11:04:00;25.30;99.90
16655;DHT22;8441;51.344;7.022;2022-08-19T11:06:27;25.30;99.90
16655;DHT22;8441;51.344;7.022;2022-08-19T11:08:55;25.20;99.90
16655;DHT22;8441;51.344;7.022;2022-08-19T11:11:23;25.30;99.90
16655;DHT22;8441;51.344;7.022;2022-08-19T11:13:50;25.40;99.90
16655;DHT22;8441;51.344;7.022;2022-08-19T11:16:19;25.70;99.90
16655;DHT22;8441;51.344;7.022;2022-08-19T11:18:49;26.10;99.90
16655;DHT22;8441;51.344;7.022;2022-08-19T11:21:19;26.50;99.90
16655;DHT22;8441;51.344;7.022;2022-08-19T11:23:48;26.90;99.90
16655;DHT22;8441;51.344;7.022;2022-08-19T11:26:18;27.20;99.90
16655;DHT22;8441;51.344;7.022;2022-08-19T11:28:45;27.30;99.90
16655;DHT22;8441;51.344;7.022;2022-08-19T11:31:13;27.30;99.90
16655;DHT22;8441;51.344;7.022;2022-08-19T11:33:40;27.40;99.90
16655;DHT22;8441;51.344;7.022;2022-08-19T11:36:08;27.30;99.90
16655;DHT22;8441;51.344;7.022;2022-08-19T11:38:37;27.10;99.90
16655;DHT22;8441;51.344;7.022;2022-08-19T11:41:06;27.00;99.90
16655;DHT22;8441;51.344;7.022;2022-08-19T11:43:34;26.90;99.90
16655;DHT22;8441;51.344;7.022;2022-08-19T11:46:04;26.60;99.90
16655;DHT22;8441;51.344;7.022;2022-08-19T11:48:32;26.30;99.90
16655;DHT22;8441;51.344;7.022;2022-08-19T11:51:04;26.10;99.90
16655;DHT22;8441;51.344;7.022;2022-08-19T11:53:32;26.00;99.90
16655;DHT22;8441;51.344;7.022;2022-08-19T11:56:01;26.20;99.90
16655;DHT22;8441;51.344;7.022;2022-08-19T11:58:28;26.40;99.90
16655;DHT22;8441;51.344;7.022;2022-08-19T12:00:56;26.60;99.90
16655;DHT22;8441;51.344;7.022;2022-08-19T12:03:23;26.70;99.90
16655;DHT22;8441;51.344;7.022;2022-08-19T12:05:51;26.80;99.90
16655;DHT22;8441;51.344;7.022;2022-08-19T12:08:18;26.70;99.90
16655;DHT22;8441;51.344;7.022;2022-08-19T12:10:46;26.70;99.90
16655;DHT22;8441;51.344;7.022;2022-08-19T12:13:14;26.70;99.90
16655;DHT22;8441;51.344;7.022;2022-08-19T12:15:45;26.90;99.90
16655;DHT22;8441;51.344;7.022;2022-08-19T12:18:13;27.10;99.90
16655;DHT22;8441;51.344;7.022;2022-08-19T12:20:42;27.40;99.90
16655;DHT22;8441;51.344;7.022;2022-08-19T12:23:09;27.40;99.90
16655;DHT22;8441;51.344;7.022;2022-08-19T12:25:37;27.20;99.90
16655;DHT22;8441;51.344;7.022;2022-08-19T12:28:15;27.10;99.90
16655;DHT22;8441;51.344;7.022;2022-08-19T12:30:42;26.60;99.90
16655;DHT22;8441;51.344;7.022;2022-08-19T12:33:09;26.50;99.90
16655;DHT22;8441;51.344;7.022;2022-08-19T12:35:39;26.40;99.90
16655;DHT22;8441;51.344;7.022;2022-08-19T12:38:06;26.50;99.90
16655;DHT22;8441;51.344;7.022;2022-08-19T12:40:34;26.60;99.90
16655;DHT22;8441;51.344;7.022;2022-08-19T12:43:01;26.50;99.90
16655;DHT22;8441;51.344;7.022;2022-08-19T12:45:29;26.40;99.90
16655;DHT22;8441;51.344;7.022;2022-08-19T12:47:56;26.30;99.90
16655;DHT22;8441;51.344;7.022;2022-08-19T12:50:23;26.10;99.90
16655;DHT22;8441;51.344;7.022;2022-08-19T12:52:51;26.30;99.90
16655;DHT22;8441;51.344;7.022;2022-08-19T12:55:18;26.80;99.90
16655;DHT22;8441;51.344;7.022;2022-08-19T12:57:45;27.10;99.90
16655;DHT22;8441;51.344;7.022;2022-08-19T13:00:16;27.50;99.90
16655;DHT22;8441;51.344;7.022;2022-08-19T13:02:47;27.60;99.90
16655;DHT22;8441;51.344;7.022;2022-08-19T13:05:17;27.90;99.90
16655;DHT22;8441;51.344;7.022;2022-08-19T13:07:45;28.10;99.30
16655;DHT22;8441;51.344;7.022;2022-08-19T13:10:18;28.10;98.80
16655;DHT22;8441;51.344;7.022;2022-08-19T13:12:48;28.00;99.50
16655;DHT22;8441;51.344;7.022;2022-08-19T13:15:18;27.90;99.70
16655;DHT22;8441;51.344;7.022;2022-08-19T13:17:48;27.60;99.90
16655;DHT22;8441;51.344;7.022;2022-08-19T13:20:17;27.40;99.90
16655;DHT22;8441;51.344;7.022;2022-08-19T13:22:44;27.30;99.90
16655;DHT22;8441;51.344;7.022;2022-08-19T13:25:12;26.90;99.90
16655;DHT22;8441;51.344;7.022;2022-08-19T13:27:40;26.90;99.90
16655;DHT22;8441;51.344;7.022;2022-08-19T13:30:09;26.70;99.90
16655;DHT22;8441;51.344;7.022;2022-08-19T13:32:56;26.50;99.90
16655;DHT22;8441;51.344;7.022;2022-08-19T13:35:40;26.30;99.90
16655;DHT22;8441;51.344;7.022;2022-08-19T13:38:08;26.20;99.90
16655;DHT22;8441;51.344;7.022;2022-08-19T13:40:36;26.20;99.90
16655;DHT22;8441;51.344;7.022;2022-08-19T13:43:04;26.30;99.90
16655;DHT22;8441;51.344;7.022;2022-08-19T13:45:33;26.40;99.80
16655;DHT22;8441;51.344;7.022;2022-08-19T13:48:04;26.50;99.90
16655;DHT22;8441;51.344;7.022;2022-08-19T13:50:33;26.70;99.90
16655;DHT22;8441;51.344;7.022;2022-08-19T13:53:01;26.90;98.90
16655;DHT22;8441;51.344;7.022;2022-08-19T13:55:29;27.10;99.00
16655;DHT22;8441;51.344;7.022;2022-08-19T13:57:59;27.30;99.00
16655;DHT22;8441;51.344;7.022;2022-08-19T14:00:33;27.50;99.30
16655;DHT22;8441;51.344;7.022;2022-08-19T14:03:03;27.50;98.70
16655;DHT22;8441;51.344;7.022;2022-08-19T14:05:30;27.50;98.60
16655;DHT22;8441;51.344;7.022;2022-08-19T14:07:58;27.60;98.90
16655;DHT22;8441;51.344;7.022;2022-08-19T14:10:26;27.60;98.50
16655;DHT22;8441;51.344;7.022;2022-08-19T14:12:54;27.60;98.00
16655;DHT22;8441;51.344;7.022;2022-08-19T14:15:24;27.50;97.70
16655;DHT22;8441;51.344;7.022;2022-08-19T14:17:52;27.40;97.20
16655;DHT22;8441;51.344;7.022;2022-08-19T14:20:21;27.30;96.70
16655;DHT22;8441;51.344;7.022;2022-08-19T14:22:49;27.30;96.80
16655;DHT22;8441;51.344;7.022;2022-08-19T14:25:19;27.20;96.40
16655;DHT22;8441;51.344;7.022;2022-08-19T14:27:47;27.20;97.20
16655;DHT22;8441;51.344;7.022;2022-08-19T14:30:17;27.30;95.90
16655;DHT22;8441;51.344;7.022;2022-08-19T14:32:44;27.40;96.30
16655;DHT22;8441;51.344;7.022;2022-08-19T14:35:13;27.30;96.40
16655;DHT22;8441;51.344;7.022;2022-08-19T14:37:42;27.40;97.10
16655;DHT22;8441;51.344;7.022;2022-08-19T14:40:11;27.50;96.90
16655;DHT22;8441;51.344;7.022;2022-08-19T14:42:38;27.70;96.60
16655;DHT22;8441;51.344;7.022;2022-08-19T14:45:07;27.90;96.10
16655;DHT22;8441;51.344;7.022;2022-08-19T14:47:35;27.70;96.30
16655;DHT22;8441;51.344;7.022;2022-08-19T14:50:02;27.30;96.80
16655;DHT22;8441;51.344;7.022;2022-08-19T14:52:29;27.00;97.40
16655;DHT22;8441;51.344;7.022;2022-08-19T14:54:58;26.70;97.80
16655;DHT22;8441;51.344;7.022;2022-08-19T14:57:25;26.40;98.30
16655;DHT22;8441;51.344;7.022;2022-08-19T14:59:52;26.40;98.60
16655;DHT22;8441;51.344;7.022;2022-08-19T15:02:19;26.20;98.50
16655;DHT22;8441;51.344;7.022;2022-08-19T15:04:46;26.20;98.90
16655;DHT22;8441;51.344;7.022;2022-08-19T15:07:13;26.20;98.80
16655;DHT22;8441;51.344;7.022;2022-08-19T15:09:40;26.10;99.20
16655;DHT22;8441;51.344;7.022;2022-08-19T15:12:09;26.10;99.40
16655;DHT22;8441;51.344;7.022;2022-08-19T15:14:36;26.20;99.60
16655;DHT22;8441;51.344;7.022;2022-08-19T15:17:04;26.20;99.20
16655;DHT22;8441;51.344;7.022;2022-08-19T15:19:32;26.20;99.50
16655;DHT22;8441;51.344;7.022;2022-08-19T15:22:01;26.00;99.80
16655;DHT22;8441;51.344;7.022;2022-08-19T15:24:28;25.90;99.90
16655;DHT22;8441;51.344;7.022;2022-08-19T15:26:55;25.90;99.90
16655;DHT22;8441;51.344;7.022;2022-08-19T15:29:23;26.00;99.90
16655;DHT22;8441;51.344;7.022;2022-08-19T15:31:51;26.00;99.90
16655;DHT22;8441;51.344;7.022;2022-08-19T15:34:20;25.90;99.90
16655;DHT22;8441;51.344;7.022;2022-08-19T15:36:48;26.00;99.90
16655;DHT22;8441;51.344;7.022;2022-08-19T15:39:15;26.10;99.90
16655;DHT22;8441;51.344;7.022;2022-08-19T15:41:45;26.00;99.60
16655;DHT22;8441;51.344;7.022;2022-08-19T15:44:15;26.00;99.80
16655;DHT22;8441;51.344;7.022;2022-08-19T15:46:46;26.20;99.60
16655;DHT22;8441;51.344;7.022;2022-08-19T15:49:14;26.40;99.00
16655;DHT22;8441;51.344;7.022;2022-08-19T15:51:43;26.60;99.10
16655;DHT22;8441;51.344;7.022;2022-08-19T15:54:13;27.00;98.20
16655;DHT22;8441;51.344;7.022;2022-08-19T15:56:40;27.20;98.20